Kirkville, IA

1:15 AM CDT on July 28, 2014 (GMT -0500)
Ottumwa Industrial (KOTM) Elev 843 ft | 41.11 °N, 92.45 °W | Change Station

Current weather conditions updated 22 minutes ago

Clear
Clear
64 °F
Feels Like 64 °F
N
13
Wind Variable Wind from NW

Today is forecast to be Cooler than yesterday.

Today
High -- | Low -- °F
--% Chance of Precip.
Yesterday
High -- | Low -- °F
Precip. -- in
6:01 AM 8:30 PM
New Moon, 2% visible
Pressure 30.05 in
Visibility 10.0 miles
Clouds Clear
Dew Point 58 °F
Humidity 80%
Rainfall 0.00 in
Snow Depth Not available.
UV 0 out of 12
Pollen 6.90 out of 12
Air Quality Not available.
Flu Activity Not available.
METAR KOTM 280553Z AUTO 31011KT 10SM CLR 18/14 A3006 RMK AO2 SLP174 T01780144 10228 20178 402610178 53005 TSNO

More Conditions Fewer Conditions

Pressure 30.05 in
Visibility 10.0 miles
Clouds Clear
Dew Point 58 °F
Humidity 80%
Rainfall 0.00 in
Snow Depth Not available.
UV 0 out of 12
Pollen 6.90 out of 12
Air Quality Not available.
Flu Activity Not available.
METAR KOTM 280553Z AUTO 31011KT 10SM CLR 18/14 A3006 RMK AO2 SLP174 T01780144 10228 20178 402610178 53005 TSNO

More Conditions Fewer Conditions

10-Day Weather Forecast

Almanac

Astronomy

Jul. 28, 2014 Rise Set
Actual Time 6:01 AM CDT 8:30 PM CDT
Civil Twilight 5:30 AM CDT 9:01 PM CDT
Nautical Twilight 4:51 AM CDT 9:40 PM CDT
Astronomical Twilight 4:07 AM CDT 10:23 PM CDT
Moon 7:45 AM CDT 9:10 PM CDT
Length of Visible Light 15h 31m
Length of Day
14h 28m
Tomorrow will be 1m 58s shorter.
New Moon, 2% of the Moon is Illuminated
Today
New Moon
Aug 3
First Quarter
Aug 10
Full
Aug 17
Last Quarter
Aug 25
New

Today's Extremes

State Highs State Lows

Community

WunderPhotos

Upload Photos

1,738,288 photos uploaded!

Nearby

Snow Depth

Station Depth Elevation
No new snow has been reported.

Earthquake Activity

City Distance Mag. Time & Date
No recent earthquake activity has been reported nearby.
Minimum magnitude displayed is 2.5.

Coastal Water Temperatures

Place Temperature
No Stations Reporting

Nearby Weather Stations

Station Location Temp. Dew Point Humidity Wind Precip. Elev Updated Type
East, Ottumwa, IA 64.5 °F 59 °F 83% NNW  at  2.6 mph 0.00 in / hr 833 ft 1:14 AM CDT Rapid Fire
Ottumwa, Ottumwa, IA 66.2 °F 52 °F 59% NW  at  0.0 mph 0.00 in / hr 669 ft 1:14 AM CDT Normal
South, Ottumwa, IA 65.8 °F 61 °F 85% North  at  3.4 mph 0.00 in / hr 640 ft 1:14 AM CDT Rapid Fire
Oskaloosa, IA 64.5 °F 59 °F 82% North  at  0.0 mph 0.00 in / hr 846 ft 1:15 AM CDT Rapid Fire
Lake Sundown, Moravia, IA 63.9 °F 59 °F 85% East  at  0.0 mph 0.00 in / hr 945 ft 1:00 AM CDT Normal

Show More Stations Show Fewer Stations